Alamo, North Dakota
Current Conditions -  °F | °C
As of 9:35 AM on Monday 24 Nov 2014 (Local Time) from KD50 Reporting Station
Broken Clouds Broken Clouds  
Wind Chill:   Ceiling: 600
Heat Index: 10°   Visibility: 8mi
Dew Point:   Wind: 5mph
Humidity: 92%   Direction: 310°NW
Pressure: 29.94"   Gusts: NA
Location:  48.58°N, 103.47°W
Report Text: KD50 241535Z AUTO 31004KT 8SM BKN006 M12/M13 A2994 RMK AO2
Loading
Personal Weather Stations






























Interactive Weather Map New forecast layout! Learn more

10-Day Weather Forecast

Advertisements
Track Severe Weather on mobile